Arley, Alabama
Current Conditions -  °F | °C
As of 11:15 AM on Saturday 20 Dec 2014 (Local Time) from KJFX Reporting Station
Overcast Overcast  
Wind Chill: 13°   Ceiling: 4400
Heat Index: 13°   Visibility: 9mi
Dew Point:   Wind: 9mph
Humidity: 51%   Direction: 20°NNE
Pressure: 30.24"   Gusts: NA
Location:  34.08°N, 87.21°W
Report Text: KJFX 201715Z AUTO 02008KT 9SM OVC044 13/03 A3024 RMK A02 P-128
Loading
Personal Weather Stations






























Interactive Weather Map New forecast layout! Learn more

10-Day Weather Forecast

Advertisements
Track Severe Weather on mobile